Time;durP1;ratioP1;P1;durP2;ratioP2;P2;SDS_P1;SDS_P2;PMS_P1;PMS_P2;Temp;Humidity;BMP_temperature;BMP_pressure;BME280_temperature;BME280_humidity;BME280_pressure;Samples;Min_cycle;Max_cycle;Signal;HPM_P1;HPM_P2
2023/08/14 00:01:48;;;;;;;;;16.00;11.67;;;;;;;;5073679;28;44862;-89
2023/08/14 00:04:14;;;;;;;;;10.00;10.00;;;;;;;;5074109;27;45122;-86
2023/08/14 00:06:39;;;;;;;;;13.00;12.00;;;;;;;;5055777;28;45051;-89
2023/08/14 00:09:04;;;;;;;;;14.33;12.67;;;;;;;;5054022;28;45472;-88
2023/08/14 00:11:29;;;;;;;;;16.33;14.33;;;;;;;;5052477;28;45742;-86
2023/08/14 00:13:56;;;;;;;;;9.67;9.67;;;;;;;;5053190;28;45614;-88
2023/08/14 00:16:23;;;;;;;;;11.33;11.00;;;;;;;;5053172;28;45492;-87
2023/08/14 00:18:48;;;;;;;;;11.67;10.67;;;;;;;;5050455;28;45984;-87
2023/08/14 00:21:13;;;;;;;;;13.33;12.00;;;;;;;;5056414;28;46163;-86
2023/08/14 00:23:39;;;;;;;;;15.00;11.33;;;;;;;;5054616;28;46091;-87
2023/08/14 00:26:04;;;;;;;;;16.33;12.00;;;;;;;;5048049;28;45846;-85
2023/08/14 00:28:30;;;;;;;;;12.00;10.67;;;;;;;;5055855;28;46440;-87
2023/08/14 00:30:55;;;;;;;;;9.67;9.00;;;;;;;;5057334;28;45661;-87
2023/08/14 00:33:20;;;;;;;;;15.33;13.00;;;;;;;;5057746;28;45353;-88
2023/08/14 00:35:46;;;;;;;;;19.33;12.00;;;;;;;;5051083;28;45608;-87
2023/08/14 00:38:11;;;;;;;;;9.00;9.00;;;;;;;;5055676;28;47086;-88
2023/08/14 00:40:36;;;;;;;;;12.00;12.00;;;;;;;;5054194;28;45559;-87
2023/08/14 00:43:01;;;;;;;;;10.33;9.00;;;;;;;;5055201;28;45527;-88
2023/08/14 00:45:27;;;;;;;;;10.00;10.00;;;;;;;;5054080;28;45462;-88
2023/08/14 00:47:54;;;;;;;;;15.00;12.00;;;;;;;;5043689;28;48238;-87
2023/08/14 00:50:19;;;;;;;;;11.00;11.00;;;;;;;;5053144;28;45775;-88
2023/08/14 00:52:46;;;;;;;;;9.67;9.67;;;;;;;;5054434;28;45534;-88
2023/08/14 00:55:13;;;;;;;;;17.00;10.33;;;;;;;;5060562;28;45521;-86
2023/08/14 00:57:39;;;;;;;;;11.33;10.33;;;;;;;;5067248;28;47184;-87
2023/08/14 01:00:05;;;;;;;;;11.00;9.33;;;;;;;;5063630;28;45195;-88
2023/08/14 01:02:31;;;;;;;;;10.67;10.67;;;;;;;;5056900;28;45422;-88
2023/08/14 01:04:56;;;;;;;;;11.67;9.67;;;;;;;;5066073;28;45364;-86
2023/08/14 01:07:24;;;;;;;;;8.33;6.67;;;;;;;;5055032;28;46884;-87
2023/08/14 01:09:50;;;;;;;;;7.00;7.00;;;;;;;;5060161;28;45638;-85
2023/08/14 01:12:18;;;;;;;;;11.00;9.33;;;;;;;;5072650;28;45470;-87
2023/08/14 01:14:45;;;;;;;;;7.67;7.33;;;;;;;;5077481;28;46120;-88
2023/08/14 01:17:13;;;;;;;;;12.33;10.00;;;;;;;;5047218;28;47372;-87
2023/08/14 01:19:44;;;;;;;;;9.00;9.00;;;;;;;;5059456;28;44837;-87
2023/08/14 01:22:10;;;;;;;;;11.67;8.67;;;;;;;;5049219;28;45761;-87
2023/08/14 01:24:54;;;;;;;;;11.67;9.00;;;;;;;;5056559;28;45786;-86
2023/08/14 01:27:19;;;;;;;;;14.00;9.33;;;;;;;;5080252;28;46528;-87
2023/08/14 01:29:51;;;;;;;;;11.33;10.33;;;;;;;;5063202;28;45333;-86
2023/08/14 01:32:16;;;;;;;;;10.67;9.67;;;;;;;;5058184;28;45493;-86
2023/08/14 01:34:41;;;;;;;;;11.33;9.67;;;;;;;;5066943;28;45739;-86
2023/08/14 01:37:12;;;;;;;;;13.33;10.00;;;;;;;;5067613;28;45970;-86
2023/08/14 01:39:48;;;;;;;;;13.67;11.67;;;;;;;;5072192;28;45449;-84
2023/08/14 01:42:33;;;;;;;;;13.33;7.67;;;;;;;;5052594;28;45494;-87
2023/08/14 01:45:01;;;;;;;;;9.33;9.33;;;;;;;;5058554;28;46056;-87
2023/08/14 01:47:28;;;;;;;;;6.67;5.33;;;;;;;;5079195;28;45909;-85
2023/08/14 01:49:54;;;;;;;;;7.33;5.00;;;;;;;;5060064;28;45910;-84
2023/08/14 01:52:20;;;;;;;;;9.67;8.33;;;;;;;;5054826;28;45503;-84
2023/08/14 01:54:45;;;;;;;;;13.00;11.33;;;;;;;;5086659;28;45397;-86
2023/08/14 01:57:10;;;;;;;;;10.00;8.67;;;;;;;;5072505;28;46752;-84
2023/08/14 01:59:41;;;;;;;;;12.00;9.33;;;;;;;;5076991;28;45373;-89
2023/08/14 02:02:06;;;;;;;;;13.00;9.00;;;;;;;;5065921;28;45871;-88
2023/08/14 02:04:32;;;;;;;;;11.33;8.67;;;;;;;;5073796;28;45493;-86
2023/08/14 02:06:57;;;;;;;;;11.00;10.33;;;;;;;;5057951;28;46900;-87
2023/08/14 02:09:22;;;;;;;;;8.33;8.33;;;;;;;;5059890;28;45728;-86
2023/08/14 02:11:47;;;;;;;;;12.00;10.00;;;;;;;;5073560;28;45449;-86
2023/08/14 02:14:13;;;;;;;;;12.00;8.67;;;;;;;;5076790;28;45731;-88
2023/08/14 02:16:38;;;;;;;;;9.67;9.00;;;;;;;;5059326;28;47213;-89
2023/08/14 02:19:03;;;;;;;;;9.00;6.00;;;;;;;;5073051;28;45720;-88
2023/08/14 02:21:28;;;;;;;;;9.67;8.33;;;;;;;;5054285;28;45372;-88
2023/08/14 02:23:54;;;;;;;;;6.50;6.00;;;;;;;;5076690;28;45522;-88
2023/08/14 02:26:19;;;;;;;;;11.67;9.33;;;;;;;;5076515;28;46550;-87
2023/08/14 02:28:44;;;;;;;;;17.33;10.67;;;;;;;;5063872;28;45707;-87
2023/08/14 02:31:10;;;;;;;;;8.33;8.33;;;;;;;;5058970;28;45564;-86
2023/08/14 02:33:35;;;;;;;;;13.00;9.67;;;;;;;;5059472;28;47127;-87
2023/08/14 02:36:01;;;;;;;;;10.00;8.67;;;;;;;;5076426;28;46399;-87
2023/08/14 02:38:26;;;;;;;;;8.67;8.33;;;;;;;;5076871;28;45701;-86
2023/08/14 02:40:51;;;;;;;;;10.00;9.00;;;;;;;;5060463;28;45835;-87
2023/08/14 02:43:17;;;;;;;;;8.00;8.00;;;;;;;;5057083;28;45748;-87
2023/08/14 02:45:42;;;;;;;;;9.00;8.33;;;;;;;;5063555;28;46442;-86
2023/08/14 02:48:07;;;;;;;;;11.33;11.33;;;;;;;;5081993;28;45352;-87
2023/08/14 02:50:33;;;;;;;;;11.00;10.00;;;;;;;;5070390;28;45104;-86
2023/08/14 02:52:58;;;;;;;;;9.33;8.67;;;;;;;;5064375;28;45978;-86
2023/08/14 02:55:25;;;;;;;;;10.33;8.33;;;;;;;;5081416;28;45480;-88
2023/08/14 02:57:50;;;;;;;;;12.00;10.67;;;;;;;;5062248;28;45909;-86
2023/08/14 03:00:15;;;;;;;;;8.67;8.67;;;;;;;;5067074;28;45601;-87
2023/08/14 03:02:41;;;;;;;;;12.00;9.67;;;;;;;;5075953;28;45507;-85
2023/08/14 03:05:06;;;;;;;;;8.00;7.33;;;;;;;;5074071;28;46057;-85
2023/08/14 03:07:31;;;;;;;;;8.00;7.33;;;;;;;;5060567;28;45798;-88
2023/08/14 03:09:57;;;;;;;;;9.00;8.00;;;;;;;;5079140;28;45813;-84
2023/08/14 03:12:22;;;;;;;;;8.00;6.67;;;;;;;;5070360;28;45883;-87
2023/08/14 03:14:47;;;;;;;;;11.00;8.33;;;;;;;;5066569;28;46099;-86
2023/08/14 03:17:13;;;;;;;;;7.67;7.33;;;;;;;;5063585;28;45507;-87
2023/08/14 03:19:38;;;;;;;;;10.33;10.33;;;;;;;;5063863;28;46106;-86
2023/08/14 03:22:03;;;;;;;;;13.33;8.33;;;;;;;;5078920;28;45767;-85
2023/08/14 03:24:29;;;;;;;;;8.67;7.33;;;;;;;;5051330;28;46027;-85
2023/08/14 03:26:54;;;;;;;;;7.33;7.00;;;;;;;;5080287;28;45694;-87
2023/08/14 03:29:19;;;;;;;;;8.67;8.33;;;;;;;;5061836;28;45477;-86
2023/08/14 03:31:45;;;;;;;;;7.00;7.00;;;;;;;;5075873;28;45062;-88
2023/08/14 03:34:10;;;;;;;;;6.67;6.67;;;;;;;;5064981;28;47256;-89
2023/08/14 03:36:35;;;;;;;;;9.00;9.00;;;;;;;;5049605;28;45540;-87
2023/08/14 03:39:00;;;;;;;;;8.67;7.00;;;;;;;;5060560;28;45897;-86
2023/08/14 03:41:26;;;;;;;;;9.00;8.67;;;;;;;;5052799;28;45677;-87
2023/08/14 03:43:51;;;;;;;;;10.33;7.00;;;;;;;;5067263;28;47566;-88
2023/08/14 03:46:16;;;;;;;;;9.67;7.00;;;;;;;;5052262;28;45419;-86
2023/08/14 03:48:41;;;;;;;;;10.67;6.33;;;;;;;;5081122;28;45768;-87
2023/08/14 03:51:07;;;;;;;;;8.00;7.33;;;;;;;;5084045;28;45318;-88
2023/08/14 03:53:33;;;;;;;;;12.67;11.00;;;;;;;;5068315;28;45599;-87
2023/08/14 03:55:58;;;;;;;;;9.00;9.00;;;;;;;;5086332;28;45689;-86
2023/08/14 03:58:23;;;;;;;;;8.33;7.00;;;;;;;;5065861;28;44799;-85
2023/08/14 04:00:49;;;;;;;;;11.33;8.33;;;;;;;;5082564;28;45550;-87
2023/08/14 04:03:14;;;;;;;;;10.33;6.00;;;;;;;;5075647;28;47642;-87
2023/08/14 04:05:40;;;;;;;;;8.67;6.33;;;;;;;;5061887;28;45441;-87
2023/08/14 04:08:06;;;;;;;;;8.33;7.33;;;;;;;;5078955;28;45834;-87
2023/08/14 04:10:32;;;;;;;;;8.67;8.67;;;;;;;;5061837;28;46919;-87
2023/08/14 04:12:57;;;;;;;;;9.33;8.67;;;;;;;;5077256;28;45854;-84
2023/08/14 04:15:22;;;;;;;;;12.00;7.00;;;;;;;;5055273;28;45484;-87
2023/08/14 04:17:47;;;;;;;;;7.00;6.67;;;;;;;;5059769;28;45582;-87
2023/08/14 04:20:13;;;;;;;;;10.33;7.33;;;;;;;;5057110;28;46386;-88
2023/08/14 04:22:38;;;;;;;;;9.67;8.67;;;;;;;;5079618;28;45391;-86
2023/08/14 04:25:04;;;;;;;;;11.33;11.00;;;;;;;;5078955;28;45449;-87
2023/08/14 04:27:29;;;;;;;;;9.67;8.67;;;;;;;;5059474;28;45446;-84
2023/08/14 04:29:54;;;;;;;;;9.33;8.00;;;;;;;;5059770;28;47470;-87
2023/08/14 04:32:20;;;;;;;;;10.33;8.33;;;;;;;;5061428;28;47024;-85
2023/08/14 04:34:45;;;;;;;;;5.33;5.00;;;;;;;;5049870;28;45427;-89
2023/08/14 04:37:10;;;;;;;;;29.33;26.00;;;;;;;;5080147;28;45683;-85
2023/08/14 04:39:36;;;;;;;;;44.33;34.00;;;;;;;;5058351;28;47446;-87
2023/08/14 04:42:01;;;;;;;;;16.00;11.67;;;;;;;;5055576;28;48556;-86
2023/08/14 04:44:26;;;;;;;;;10.67;9.67;;;;;;;;5070511;28;45776;-86
2023/08/14 04:46:51;;;;;;;;;8.67;7.00;;;;;;;;5076504;28;45988;-85
2023/08/14 04:49:17;;;;;;;;;8.00;8.00;;;;;;;;5056444;28;46190;-84
2023/08/14 04:51:42;;;;;;;;;8.33;8.33;;;;;;;;5057401;28;46816;-87
2023/08/14 04:54:07;;;;;;;;;8.33;7.67;;;;;;;;5059623;28;46416;-88
2023/08/14 04:56:33;;;;;;;;;15.67;10.00;;;;;;;;5079019;28;45421;-86
2023/08/14 04:58:58;;;;;;;;;9.67;8.33;;;;;;;;5054129;28;47037;-87
2023/08/14 05:01:23;;;;;;;;;7.33;7.33;;;;;;;;5076021;28;45387;-86
2023/08/14 05:03:49;;;;;;;;;8.67;7.67;;;;;;;;5045682;28;45852;-86
2023/08/14 05:06:14;;;;;;;;;6.67;6.67;;;;;;;;5060475;28;45100;-88
2023/08/14 05:08:39;;;;;;;;;9.00;6.33;;;;;;;;5060752;28;45447;-86
2023/08/14 05:11:05;;;;;;;;;7.67;7.33;;;;;;;;5086422;28;45904;-86
2023/08/14 05:13:31;;;;;;;;;16.50;12.50;;;;;;;;5083013;28;45493;-85
2023/08/14 05:15:56;;;;;;;;;9.00;7.33;;;;;;;;5080493;28;46230;-86
2023/08/14 05:18:21;;;;;;;;;17.00;12.67;;;;;;;;5066163;28;46548;-87
2023/08/14 05:20:48;;;;;;;;;9.33;8.33;;;;;;;;5048240;28;47430;-87
2023/08/14 05:23:14;;;;;;;;;8.33;4.00;;;;;;;;5077296;28;45838;-85
2023/08/14 05:25:41;;;;;;;;;6.33;6.00;;;;;;;;5059102;28;45557;-86
2023/08/14 05:28:06;;;;;;;;;7.33;7.33;;;;;;;;5077091;28;45442;-86
2023/08/14 05:30:31;;;;;;;;;8.67;7.67;;;;;;;;5059008;28;47178;-88
2023/08/14 05:32:57;;;;;;;;;9.00;7.33;;;;;;;;5060618;28;45793;-87
2023/08/14 05:35:25;;;;;;;;;10.67;10.33;;;;;;;;5074748;28;45720;-87
2023/08/14 05:37:55;;;;;;;;;8.00;8.00;;;;;;;;5045786;28;46064;-86
2023/08/14 05:40:24;;;;;;;;;9.33;8.33;;;;;;;;5068469;28;46355;-87
2023/08/14 05:43:08;;;;;;;;;11.00;9.00;;;;;;;;5056045;28;45931;-86
2023/08/14 05:45:34;;;;;;;;;9.33;7.33;;;;;;;;5052108;28;45458;-86
2023/08/14 05:48:00;;;;;;;;;11.67;8.33;;;;;;;;5053265;28;46242;-86
2023/08/14 05:50:27;;;;;;;;;8.00;7.67;;;;;;;;5050585;28;47346;-86
2023/08/14 05:52:52;;;;;;;;;10.33;7.00;;;;;;;;5089023;28;45811;-86
2023/08/14 05:55:17;;;;;;;;;9.67;8.00;;;;;;;;5074323;28;45333;-88
2023/08/14 05:57:43;;;;;;;;;8.00;8.00;;;;;;;;5097989;27;44882;-86
2023/08/14 06:00:11;;;;;;;;;7.67;7.67;;;;;;;;5085165;28;45498;-88
2023/08/14 06:02:36;;;;;;;;;10.00;7.67;;;;;;;;5068298;28;45439;-87
2023/08/14 06:05:02;;;;;;;;;9.00;7.00;;;;;;;;5068621;28;45481;-87
2023/08/14 06:07:27;;;;;;;;;10.33;9.00;;;;;;;;5071393;28;45719;-86
2023/08/14 06:09:53;;;;;;;;;8.00;7.33;;;;;;;;5057672;28;45804;-86
2023/08/14 06:12:18;;;;;;;;;11.67;7.33;;;;;;;;5069954;28;45662;-86
2023/08/14 06:14:43;;;;;;;;;6.33;6.33;;;;;;;;5070090;28;45473;-84
2023/08/14 06:17:09;;;;;;;;;8.33;7.67;;;;;;;;5074647;28;45436;-85
2023/08/14 06:19:34;;;;;;;;;8.33;7.00;;;;;;;;5060186;28;46760;-86
2023/08/14 06:21:59;;;;;;;;;10.33;8.00;;;;;;;;5057755;28;45382;-85
2023/08/14 06:24:28;;;;;;;;;8.25;6.50;;;;;;;;5059377;28;45776;-84
2023/08/14 06:26:53;;;;;;;;;8.25;7.00;;;;;;;;5059470;28;45870;-85
2023/08/14 06:29:19;;;;;;;;;8.00;8.00;;;;;;;;5076568;28;45703;-84
2023/08/14 06:31:44;;;;;;;;;6.75;6.50;;;;;;;;5057936;28;45882;-84
2023/08/14 06:34:09;;;;;;;;;9.25;7.00;;;;;;;;5057390;28;45739;-83
2023/08/14 06:36:34;;;;;;;;;9.00;6.50;;;;;;;;5061400;28;45532;-83
2023/08/14 06:39:00;;;;;;;;;14.25;7.00;;;;;;;;5081656;28;46664;-86
2023/08/14 06:41:25;;;;;;;;;10.00;5.00;;;;;;;;5078993;28;45470;-84
2023/08/14 06:43:50;;;;;;;;;9.25;8.25;;;;;;;;5061347;28;45652;-84
2023/08/14 06:46:16;;;;;;;;;7.25;7.25;;;;;;;;5079951;28;45378;-85
2023/08/14 06:48:41;;;;;;;;;6.00;6.00;;;;;;;;5060537;28;48206;-83
2023/08/14 06:51:06;;;;;;;;;7.75;6.50;;;;;;;;5058871;28;45861;-84
2023/08/14 06:53:31;;;;;;;;;6.50;5.50;;;;;;;;5063366;28;45735;-85
2023/08/14 06:55:57;;;;;;;;;8.50;7.50;;;;;;;;5054961;28;46001;-84
2023/08/14 06:58:22;;;;;;;;;8.00;5.25;;;;;;;;5054759;28;47974;-84
2023/08/14 07:00:50;;;;;;;;;5.50;5.50;;;;;;;;5072735;28;45499;-85
2023/08/14 07:03:15;;;;;;;;;8.50;5.25;;;;;;;;5054493;28;45314;-85
2023/08/14 07:05:40;;;;;;;;;4.25;4.25;;;;;;;;5061023;28;45565;-85
2023/08/14 07:08:05;;;;;;;;;5.00;5.00;;;;;;;;5056627;28;47454;-85
2023/08/14 07:10:31;;;;;;;;;5.00;3.75;;;;;;;;5075066;28;45718;-83
2023/08/14 07:12:56;;;;;;;;;2.00;2.00;;;;;;;;5072573;28;45557;-84
2023/08/14 07:15:21;;;;;;;;;6.00;4.50;;;;;;;;5054002;28;46236;-84
2023/08/14 07:17:46;;;;;;;;;4.00;3.25;;;;;;;;5055497;28;46927;-85
2023/08/14 07:20:12;;;;;;;;;2.25;2.25;;;;;;;;5043432;28;45781;-84
2023/08/14 07:22:37;;;;;;;;;2.00;2.00;;;;;;;;5072523;28;45785;-86
2023/08/14 07:25:03;;;;;;;;;5.00;3.75;;;;;;;;5054580;28;45517;-85
2023/08/14 07:27:29;;;;;;;;;5.25;3.75;;;;;;;;5057605;28;47046;-85
2023/08/14 07:29:54;;;;;;;;;4.50;2.50;;;;;;;;5067787;28;46590;-86
2023/08/14 07:32:19;;;;;;;;;2.25;2.25;;;;;;;;5079049;28;45534;-84
2023/08/14 07:34:44;;;;;;;;;3.75;2.50;;;;;;;;5066697;28;45976;-86
2023/08/14 07:37:10;;;;;;;;;1.50;1.50;;;;;;;;5065970;28;46951;-84
2023/08/14 07:39:35;;;;;;;;;1.25;1.25;;;;;;;;5093452;28;44934;-83
2023/08/14 07:42:01;;;;;;;;;5.25;2.75;;;;;;;;5078008;28;45395;-87
2023/08/14 07:44:27;;;;;;;;;2.00;2.00;;;;;;;;5079342;27;44851;-86
2023/08/14 07:46:52;;;;;;;;;2.00;2.00;;;;;;;;5068106;28;45284;-87
2023/08/14 07:49:17;;;;;;;;;4.00;3.00;;;;;;;;5060386;28;45422;-86
2023/08/14 07:51:43;;;;;;;;;7.75;3.75;;;;;;;;5068386;28;45652;-87
2023/08/14 07:54:08;;;;;;;;;1.50;0.25;;;;;;;;5060470;28;45935;-88
2023/08/14 07:56:33;;;;;;;;;2.00;2.00;;;;;;;;5056839;28;47034;-87
2023/08/14 07:58:58;;;;;;;;;2.50;2.00;;;;;;;;5062980;28;45389;-87
2023/08/14 08:01:24;;;;;;;;;2.75;1.50;;;;;;;;5078610;28;45655;-87
2023/08/14 08:03:49;;;;;;;;;1.25;0.75;;;;;;;;5058619;28;46658;-87
2023/08/14 08:06:14;;;;;;;;;4.25;2.50;;;;;;;;5059700;28;47808;-85
2023/08/14 08:08:40;;;;;;;;;3.00;2.00;;;;;;;;5062819;28;45442;-87
2023/08/14 08:11:05;;;;;;;;;1.75;1.75;;;;;;;;5073549;28;45738;-85
2023/08/14 08:13:30;;;;;;;;;2.00;2.00;;;;;;;;5060279;28;46181;-87
2023/08/14 08:15:55;;;;;;;;;3.00;3.00;;;;;;;;5079715;28;45852;-87
2023/08/14 08:18:21;;;;;;;;;4.00;2.50;;;;;;;;5079394;28;45913;-87
2023/08/14 08:20:46;;;;;;;;;2.25;2.25;;;;;;;;5060648;28;45832;-87
2023/08/14 08:23:11;;;;;;;;;2.00;2.00;;;;;;;;5056577;28;46799;-88
2023/08/14 08:25:36;;;;;;;;;2.00;2.00;;;;;;;;5055236;28;45831;-86
2023/08/14 08:28:02;;;;;;;;;2.00;2.00;;;;;;;;5068447;28;45480;-85
2023/08/14 08:30:27;;;;;;;;;2.25;2.25;;;;;;;;5056678;28;45748;-87
2023/08/14 08:32:53;;;;;;;;;3.50;2.00;;;;;;;;5075195;28;45613;-87
2023/08/14 08:35:18;;;;;;;;;4.25;2.75;;;;;;;;5058275;28;47353;-85
2023/08/14 08:37:43;;;;;;;;;1.00;1.00;;;;;;;;5066529;28;45496;-83
2023/08/14 08:40:09;;;;;;;;;1.75;1.75;;;;;;;;5074510;28;45537;-84
2023/08/14 08:42:35;;;;;;;;;2.50;2.50;;;;;;;;5055262;28;45953;-83
2023/08/14 08:45:02;;;;;;;;;4.00;2.50;;;;;;;;5055364;28;46731;-86
2023/08/14 08:47:29;;;;;;;;;1.60;1.40;;;;;;;;5060343;28;45939;-85
2023/08/14 08:49:54;;;;;;;;;1.75;1.75;;;;;;;;5059245;28;45701;-84
2023/08/14 08:52:19;;;;;;;;;3.50;3.00;;;;;;;;5060340;28;46974;-85
2023/08/14 08:54:45;;;;;;;;;3.00;2.00;;;;;;;;5057650;28;47502;-85
2023/08/14 08:57:11;;;;;;;;;4.00;2.00;;;;;;;;5057203;28;45912;-85
2023/08/14 08:59:39;;;;;;;;;4.75;3.50;;;;;;;;5057249;28;45741;-84
2023/08/14 09:02:04;;;;;;;;;3.00;3.00;;;;;;;;5056957;28;46857;-85
2023/08/14 09:04:29;;;;;;;;;3.00;3.00;;;;;;;;5060407;28;48151;-85
2023/08/14 09:06:55;;;;;;;;;6.25;4.00;;;;;;;;5081925;28;45360;-84
2023/08/14 09:09:21;;;;;;;;;2.00;2.00;;;;;;;;5061563;28;45434;-85
2023/08/14 09:11:46;;;;;;;;;5.00;2.25;;;;;;;;5067684;28;45712;-85
2023/08/14 09:14:12;;;;;;;;;2.25;1.00;;;;;;;;5058300;28;46968;-85
2023/08/14 09:16:38;;;;;;;;;2.20;2.20;;;;;;;;5059309;28;45869;-87
2023/08/14 09:19:03;;;;;;;;;2.25;2.25;;;;;;;;5076710;28;45823;-87
2023/08/14 09:21:29;;;;;;;;;2.25;2.25;;;;;;;;5068667;28;46313;-85
2023/08/14 09:23:54;;;;;;;;;2.75;2.00;;;;;;;;5060620;28;47710;-84
2023/08/14 09:26:20;;;;;;;;;2.00;2.00;;;;;;;;5070204;28;45430;-86
2023/08/14 09:28:46;;;;;;;;;4.50;1.75;;;;;;;;5092017;27;45243;-84
2023/08/14 09:31:12;;;;;;;;;5.75;4.00;;;;;;;;5075901;27;44821;-84
2023/08/14 09:33:41;;;;;;;;;2.75;1.50;;;;;;;;5057323;28;46940;-85
2023/08/14 09:36:07;;;;;;;;;3.25;3.00;;;;;;;;5059292;28;45598;-84
2023/08/14 09:38:33;;;;;;;;;4.25;2.25;;;;;;;;5074698;28;45502;-85
2023/08/14 09:40:58;;;;;;;;;2.25;2.25;;;;;;;;5056470;28;45783;-85
2023/08/14 09:43:24;;;;;;;;;1.75;1.75;;;;;;;;5055640;28;46897;-84
2023/08/14 09:45:50;;;;;;;;;2.50;2.50;;;;;;;;5056426;28;45556;-87
2023/08/14 09:48:16;;;;;;;;;5.25;3.25;;;;;;;;5075467;28;45406;-86
2023/08/14 09:50:47;;;;;;;;;1.25;1.25;;;;;;;;5057345;28;46929;-84
2023/08/14 09:53:12;;;;;;;;;2.00;2.00;;;;;;;;5075138;28;46211;-86
2023/08/14 09:55:38;;;;;;;;;3.00;3.00;;;;;;;;5059684;28;45445;-87
2023/08/14 09:58:03;;;;;;;;;3.25;3.25;;;;;;;;5059481;28;45930;-87
2023/08/14 10:00:30;;;;;;;;;2.00;2.00;;;;;;;;5078108;28;45747;-87
2023/08/14 10:02:56;;;;;;;;;2.25;2.25;;;;;;;;5082505;28;45449;-86
2023/08/14 10:05:23;;;;;;;;;5.50;3.75;;;;;;;;5058802;28;45391;-87
2023/08/14 10:07:49;;;;;;;;;2.50;2.50;;;;;;;;5077090;28;45816;-87
2023/08/14 10:10:15;;;;;;;;;4.25;3.00;;;;;;;;5050707;28;46985;-85
2023/08/14 10:12:45;;;;;;;;;3.00;3.00;;;;;;;;5074451;28;46192;-86
2023/08/14 10:15:13;;;;;;;;;3.00;3.00;;;;;;;;5049781;28;45532;-87
2023/08/14 10:17:55;;;;;;;;;4.75;3.00;;;;;;;;5055353;28;45838;-85
2023/08/14 10:20:21;;;;;;;;;5.25;3.25;;;;;;;;5054830;28;45862;-84
2023/08/14 10:22:47;;;;;;;;;4.25;3.25;;;;;;;;5072193;28;46227;-85
2023/08/14 10:25:13;;;;;;;;;4.50;3.00;;;;;;;;5073725;28;45746;-84
2023/08/14 10:27:39;;;;;;;;;1.75;0.00;;;;;;;;5054543;28;45819;-86
2023/08/14 10:30:04;;;;;;;;;2.00;2.00;;;;;;;;5053501;28;46944;-85
2023/08/14 10:32:30;;;;;;;;;2.00;2.00;;;;;;;;5056854;28;47232;-86
2023/08/14 10:34:56;;;;;;;;;3.00;3.00;;;;;;;;5057019;28;45459;-85
2023/08/14 10:37:25;;;;;;;;;7.00;3.25;;;;;;;;5073940;28;45624;-86
2023/08/14 10:39:51;;;;;;;;;4.50;3.25;;;;;;;;5055940;28;46107;-83
2023/08/14 10:42:16;;;;;;;;;3.00;3.00;;;;;;;;5056455;28;47980;-84
2023/08/14 10:44:46;;;;;;;;;5.25;3.50;;;;;;;;5056805;28;47001;-87
2023/08/14 10:47:12;;;;;;;;;3.00;3.00;;;;;;;;5079814;28;45630;-87
2023/08/14 10:49:42;;;;;;;;;4.75;3.25;;;;;;;;5054955;28;46006;-85
2023/08/14 10:52:12;;;;;;;;;4.50;4.50;;;;;;;;5054899;28;46414;-84
2023/08/14 10:54:38;;;;;;;;;3.25;3.25;;;;;;;;5054604;28;45870;-86
2023/08/14 10:57:07;;;;;;;;;3.25;3.25;;;;;;;;5074750;28;45606;-85
2023/08/14 10:59:34;;;;;;;;;5.75;3.00;;;;;;;;5073105;28;45806;-85
2023/08/14 11:02:13;;;;;;;;;2.50;2.50;;;;;;;;5060840;28;45353;-85
2023/08/14 11:05:00;;;;;;;;;3.25;3.25;;;;;;;;5077825;28;45341;-85
2023/08/14 11:07:29;;;;;;;;;3.50;3.50;;;;;;;;5073904;28;45631;-85
2023/08/14 11:09:55;;;;;;;;;4.25;3.00;;;;;;;;5067044;28;45829;-84
2023/08/14 11:12:20;;;;;;;;;3.25;2.25;;;;;;;;5089622;28;45554;-84
2023/08/14 11:14:46;;;;;;;;;3.25;2.25;;;;;;;;5084277;28;44787;-85
2023/08/14 11:17:11;;;;;;;;;4.00;4.00;;;;;;;;5072110;28;45441;-85
2023/08/14 11:19:37;;;;;;;;;3.00;3.00;;;;;;;;5064952;28;45658;-85
2023/08/14 11:22:03;;;;;;;;;2.75;1.50;;;;;;;;5049421;28;47079;-84
2023/08/14 11:24:29;;;;;;;;;2.75;2.00;;;;;;;;5054406;28;45492;-84
2023/08/14 11:26:56;;;;;;;;;5.25;4.00;;;;;;;;5053324;28;45343;-85
2023/08/14 11:29:22;;;;;;;;;3.50;3.00;;;;;;;;5055719;28;47317;-83
2023/08/14 11:31:48;;;;;;;;;3.00;2.00;;;;;;;;5053623;28;45867;-85
2023/08/14 11:34:13;;;;;;;;;6.50;3.00;;;;;;;;5052488;28;45799;-85
2023/08/14 11:36:39;;;;;;;;;2.75;2.75;;;;;;;;5053352;28;45926;-85
2023/08/14 11:39:06;;;;;;;;;3.50;2.00;;;;;;;;5052497;28;45764;-85
2023/08/14 11:41:32;;;;;;;;;3.00;3.00;;;;;;;;5053188;28;47193;-85
2023/08/14 11:43:58;;;;;;;;;3.00;3.00;;;;;;;;5054298;28;45821;-86
2023/08/14 11:46:24;;;;;;;;;3.50;2.25;;;;;;;;5067216;28;44813;-86
2023/08/14 11:48:49;;;;;;;;;2.00;2.00;;;;;;;;5061189;28;45819;-84
2023/08/14 11:51:14;;;;;;;;;4.50;4.50;;;;;;;;5070494;28;46303;-84
2023/08/14 11:53:40;;;;;;;;;3.00;3.00;;;;;;;;5071648;28;45378;-84
2023/08/14 11:56:05;;;;;;;;;4.75;3.00;;;;;;;;5062402;28;45334;-85
2023/08/14 11:58:31;;;;;;;;;6.75;4.75;;;;;;;;5063263;28;45703;-84
2023/08/14 12:00:56;;;;;;;;;1.75;1.75;;;;;;;;5067304;28;45701;-84
2023/08/14 12:03:21;;;;;;;;;4.00;2.00;;;;;;;;5072054;28;45496;-85
2023/08/14 12:05:47;;;;;;;;;2.50;2.50;;;;;;;;5071714;28;45761;-84
2023/08/14 12:08:13;;;;;;;;;3.75;3.75;;;;;;;;5065078;28;45818;-84
2023/08/14 12:10:39;;;;;;;;;6.00;4.25;;;;;;;;5067463;28;45554;-86
2023/08/14 12:13:04;;;;;;;;;5.25;3.50;;;;;;;;5074409;28;45664;-85
2023/08/14 12:15:30;;;;;;;;;4.00;3.25;;;;;;;;5057760;28;45881;-85
2023/08/14 12:17:55;;;;;;;;;4.00;3.00;;;;;;;;5059376;28;46325;-85
2023/08/14 12:20:20;;;;;;;;;7.25;4.00;;;;;;;;5066554;28;45602;-85
2023/08/14 12:22:46;;;;;;;;;5.00;5.00;;;;;;;;5082947;28;45534;-85
2023/08/14 12:25:17;;;;;;;;;4.50;4.50;;;;;;;;5059434;28;45519;-85
2023/08/14 12:27:42;;;;;;;;;5.00;4.25;;;;;;;;5073737;28;45505;-85
2023/08/14 12:30:10;;;;;;;;;3.00;3.00;;;;;;;;5055782;28;48034;-84
2023/08/14 12:32:36;;;;;;;;;4.50;4.50;;;;;;;;5075415;28;45554;-86
2023/08/14 12:35:01;;;;;;;;;3.75;3.75;;;;;;;;5055224;28;45746;-85
2023/08/14 12:37:27;;;;;;;;;6.00;4.75;;;;;;;;5044393;28;45588;-85
2023/08/14 12:39:54;;;;;;;;;5.00;3.75;;;;;;;;5056416;28;47344;-83
2023/08/14 12:42:19;;;;;;;;;5.50;4.00;;;;;;;;5075056;28;45481;-87
2023/08/14 12:44:44;;;;;;;;;6.50;5.00;;;;;;;;5056818;28;45505;-85
2023/08/14 12:47:10;;;;;;;;;3.00;3.00;;;;;;;;5081811;28;45312;-84
2023/08/14 12:49:37;;;;;;;;;3.00;3.00;;;;;;;;5081681;28;45892;-87
2023/08/14 12:52:02;;;;;;;;;3.75;3.75;;;;;;;;5068424;28;46288;-86
2023/08/14 12:54:28;;;;;;;;;3.50;2.25;;;;;;;;5096254;28;46061;-86
2023/08/14 12:56:53;;;;;;;;;5.00;4.00;;;;;;;;5071600;28;45446;-88
2023/08/14 12:59:19;;;;;;;;;5.75;3.75;;;;;;;;5058234;28;46730;-87
2023/08/14 13:01:44;;;;;;;;;3.75;3.00;;;;;;;;5060701;28;45511;-86
2023/08/14 13:04:10;;;;;;;;;5.00;4.00;;;;;;;;5056679;28;46012;-86
2023/08/14 13:06:36;;;;;;;;;3.50;3.50;;;;;;;;5062145;28;46140;-86
2023/08/14 13:09:01;;;;;;;;;6.00;3.75;;;;;;;;5064863;28;46293;-83
2023/08/14 13:11:26;;;;;;;;;5.25;5.25;;;;;;;;5081754;28;45382;-87
2023/08/14 13:13:52;;;;;;;;;5.00;5.00;;;;;;;;5063272;28;45802;-85
2023/08/14 13:16:17;;;;;;;;;7.25;4.75;;;;;;;;5081133;28;45851;-86
2023/08/14 13:18:43;;;;;;;;;3.50;3.50;;;;;;;;5063068;28;47073;-86
2023/08/14 13:21:08;;;;;;;;;3.00;2.00;;;;;;;;5053630;28;45860;-85
2023/08/14 13:23:34;;;;;;;;;3.75;3.75;;;;;;;;5064246;28;45365;-85
2023/08/14 13:25:59;;;;;;;;;3.00;3.00;;;;;;;;5070102;28;45376;-85
2023/08/14 13:28:25;;;;;;;;;5.00;5.00;;;;;;;;5091431;28;45718;-85
2023/08/14 13:30:50;;;;;;;;;5.50;4.00;;;;;;;;5071842;28;44830;-87
2023/08/14 13:33:16;;;;;;;;;5.00;5.00;;;;;;;;5083016;28;45373;-86
2023/08/14 13:35:41;;;;;;;;;3.75;3.75;;;;;;;;5080734;28;45687;-85
2023/08/14 13:38:06;;;;;;;;;4.00;4.00;;;;;;;;5078618;28;46217;-86
2023/08/14 13:40:31;;;;;;;;;5.75;4.00;;;;;;;;5060715;28;45490;-85
2023/08/14 13:42:57;;;;;;;;;4.00;4.00;;;;;;;;5081612;28;44790;-86
2023/08/14 13:45:23;;;;;;;;;5.00;4.00;;;;;;;;5049308;28;47192;-86
2023/08/14 13:47:48;;;;;;;;;4.00;4.00;;;;;;;;5063403;28;46148;-87
2023/08/14 13:50:13;;;;;;;;;6.50;5.25;;;;;;;;5081543;28;44807;-85
2023/08/14 13:52:39;;;;;;;;;4.50;4.50;;;;;;;;5061108;28;45391;-85
2023/08/14 13:55:04;;;;;;;;;3.25;2.25;;;;;;;;5071465;28;45883;-87
2023/08/14 13:57:31;;;;;;;;;4.75;3.50;;;;;;;;5078515;28;45682;-87
2023/08/14 13:59:56;;;;;;;;;3.75;3.75;;;;;;;;5074651;28;45476;-86
2023/08/14 14:02:21;;;;;;;;;4.00;4.00;;;;;;;;5075912;28;45541;-87
2023/08/14 14:04:47;;;;;;;;;5.50;4.00;;;;;;;;5078100;28;45501;-87
2023/08/14 14:07:12;;;;;;;;;3.50;3.50;;;;;;;;5079544;28;45774;-87
2023/08/14 14:09:37;;;;;;;;;4.50;4.25;;;;;;;;5067487;28;45809;-86
2023/08/14 14:12:03;;;;;;;;;5.50;5.00;;;;;;;;5071537;28;45424;-86
2023/08/14 14:14:28;;;;;;;;;6.25;6.25;;;;;;;;5070282;28;45958;-86
2023/08/14 14:17:00;;;;;;;;;5.75;4.75;;;;;;;;5072292;28;46997;-85
2023/08/14 14:19:26;;;;;;;;;4.50;3.00;;;;;;;;5062553;28;45426;-86
2023/08/14 14:21:52;;;;;;;;;3.75;3.50;;;;;;;;5085524;28;45451;-86
2023/08/14 14:24:17;;;;;;;;;3.50;3.00;;;;;;;;5076464;28;44824;-85
2023/08/14 14:26:43;;;;;;;;;3.00;3.00;;;;;;;;5096471;28;45177;-86
2023/08/14 14:29:08;;;;;;;;;5.25;4.00;;;;;;;;5097010;28;44875;-87
2023/08/14 14:31:33;;;;;;;;;4.00;4.00;;;;;;;;5081001;27;45263;-84